Time;durP1;ratioP1;P1;durP2;ratioP2;P2;SDS_P1;SDS_P2;PMS_P1;PMS_P2;Temp;Humidity;BMP_temperature;BMP_pressure;BME280_temperature;BME280_humidity;BME280_pressure;Samples;Min_cycle;Max_cycle;Signal;HPM_P1;HPM_P2
2022/11/09 00:02:22;;;;;;;0.50;0.50;;;13.60;99.90;;;;;;4997341;28;20044;-80
2022/11/09 00:04:51;;;;;;;0.50;0.50;;;13.50;99.90;;;;;;4960767;28;20483;-83
2022/11/09 00:07:17;;;;;;;0.50;0.50;;;13.50;99.90;;;;;;4959610;28;21157;-85
2022/11/09 00:09:43;;;;;;;0.50;0.50;;;13.50;99.90;;;;;;4936255;28;20591;-81
2022/11/09 00:12:08;;;;;;;0.60;0.60;;;13.40;99.90;;;;;;4963498;28;20075;-81
2022/11/09 00:14:35;;;;;;;0.50;0.50;;;13.40;99.90;;;;;;4977262;28;20383;-81
2022/11/09 00:17:01;;;;;;;0.50;0.50;;;13.40;99.90;;;;;;4968478;28;20207;-84
2022/11/09 00:19:27;;;;;;;0.50;0.50;;;13.30;99.90;;;;;;4971622;28;20052;-84
2022/11/09 00:21:52;;;;;;;0.60;0.60;;;13.30;99.90;;;;;;4944495;28;20419;-82
2022/11/09 00:24:18;;;;;;;0.60;0.60;;;13.30;99.90;;;;;;4961581;28;20075;-82
2022/11/09 00:26:44;;;;;;;0.50;0.50;;;13.30;99.90;;;;;;4942507;28;20938;-82
2022/11/09 00:29:10;;;;;;;0.60;0.60;;;13.30;99.90;;;;;;4979195;28;20040;-84
2022/11/09 00:31:35;;;;;;;0.50;0.50;;;13.30;99.90;;;;;;4949779;28;20117;-81
2022/11/09 00:34:01;;;;;;;0.50;0.50;;;13.30;99.90;;;;;;4994642;28;20047;-86
2022/11/09 00:36:28;;;;;;;0.52;0.52;;;13.20;99.90;;;;;;4958267;28;20056;-81
2022/11/09 00:38:59;;;;;;;0.50;0.50;;;13.20;99.90;;;;;;4960892;28;20044;-85
2022/11/09 00:41:26;;;;;;;0.50;0.50;;;13.20;99.90;;;;;;4963751;28;20150;-87
2022/11/09 00:43:52;;;;;;;0.50;0.50;;;13.20;99.90;;;;;;4955838;28;20090;-83
2022/11/09 00:46:19;;;;;;;0.50;0.50;;;13.20;99.90;;;;;;4959843;28;20053;-84
2022/11/09 00:48:45;;;;;;;0.60;0.60;;;13.20;99.90;;;;;;4947612;28;20237;-81
2022/11/09 00:51:12;;;;;;;0.50;0.50;;;13.20;99.90;;;;;;4946519;28;20312;-82
2022/11/09 00:53:38;;;;;;;0.50;0.50;;;13.20;99.90;;;;;;4964633;28;20874;-87
2022/11/09 00:56:07;;;;;;;0.60;0.60;;;13.30;99.90;;;;;;4931222;28;20063;-83
2022/11/09 00:58:34;;;;;;;0.60;0.60;;;13.30;99.90;;;;;;4972950;28;20053;-84
2022/11/09 01:01:13;;;;;;;0.60;0.60;;;13.40;99.90;;;;;;4948436;28;20931;-86
2022/11/09 01:03:39;;;;;;;0.50;0.50;;;13.50;99.90;;;;;;4970906;28;20044;-85
2022/11/09 01:06:05;;;;;;;0.50;0.50;;;13.60;99.90;;;;;;4962391;28;20450;-82
2022/11/09 01:08:33;;;;;;;0.60;0.60;;;13.70;99.90;;;;;;4984328;28;20598;-82
2022/11/09 01:11:06;;;;;;;0.50;0.50;;;13.70;99.90;;;;;;4965003;28;20219;-86
2022/11/09 01:13:32;;;;;;;0.60;0.60;;;13.80;99.90;;;;;;4962888;28;20048;-81
2022/11/09 01:15:58;;;;;;;0.50;0.50;;;13.80;99.90;;;;;;4959542;28;20098;-82
2022/11/09 01:18:23;;;;;;;0.50;0.50;;;13.90;99.90;;;;;;4967931;28;20048;-82
2022/11/09 01:20:50;;;;;;;0.50;0.50;;;13.80;99.90;;;;;;4969005;28;20067;-81
2022/11/09 01:23:17;;;;;;;0.50;0.50;;;13.80;99.90;;;;;;4974605;28;20489;-82
2022/11/09 01:25:43;;;;;;;0.50;0.50;;;13.80;99.90;;;;;;4991602;28;20040;-82
2022/11/09 01:28:10;;;;;;;0.50;0.50;;;13.90;99.90;;;;;;4988891;28;20296;-84
2022/11/09 01:30:38;;;;;;;0.50;0.50;;;13.90;99.90;;;;;;4966969;28;20076;-84
2022/11/09 01:33:06;;;;;;;0.50;0.50;;;13.80;99.90;;;;;;4976848;28;20308;-79
2022/11/09 01:35:33;;;;;;;0.50;0.50;;;13.80;99.90;;;;;;4963443;28;20501;-86
2022/11/09 01:37:59;;;;;;;0.50;0.50;;;13.80;99.90;;;;;;4961909;28;20820;-84
2022/11/09 01:40:27;;;;;;;0.50;0.50;;;13.80;99.90;;;;;;4963957;28;20822;-83
2022/11/09 01:42:52;;;;;;;0.50;0.50;;;13.70;99.90;;;;;;4961539;28;20052;-84
2022/11/09 01:45:18;;;;;;;0.50;0.50;;;13.70;99.90;;;;;;4979012;28;20472;-84
2022/11/09 01:48:02;;;;;;;0.50;0.50;;;13.60;99.90;;;;;;4945115;28;20078;-85
2022/11/09 01:50:40;;;;;;;0.60;0.60;;;13.70;99.90;;;;;;4960142;28;20131;-83
2022/11/09 01:53:13;;;;;;;0.60;0.60;;;13.70;99.90;;;;;;4962421;28;20123;-85
2022/11/09 01:55:40;;;;;;;0.50;0.50;;;13.70;99.90;;;;;;4965403;28;20040;-84
2022/11/09 01:58:09;;;;;;;0.50;0.50;;;13.70;99.90;;;;;;4976166;28;20695;-85
2022/11/09 02:00:37;;;;;;;0.50;0.50;;;13.70;99.90;;;;;;4962364;28;20041;-82
2022/11/09 02:03:36;;;;;;;0.50;0.50;;;13.70;99.90;;;;;;4967141;28;20390;-81
2022/11/09 02:06:05;;;;;;;0.50;0.50;;;13.60;99.90;;;;;;4927665;28;20166;-87
2022/11/09 02:08:34;;;;;;;0.50;0.50;;;13.60;99.90;;;;;;4961014;28;21014;-89
2022/11/09 02:11:12;;;;;;;0.50;0.50;;;13.60;99.90;;;;;;4960820;28;20565;-85
2022/11/09 02:13:40;;;;;;;0.50;0.50;;;13.50;99.90;;;;;;4959686;28;20063;-84
2022/11/09 02:16:09;;;;;;;0.50;0.50;;;13.40;99.90;;;;;;4967019;28;20163;-83
2022/11/09 02:18:38;;;;;;;0.50;0.50;;;13.30;99.90;;;;;;4954816;28;20052;-82
2022/11/09 02:21:04;;;;;;;0.50;0.50;;;13.40;99.90;;;;;;4961459;28;20509;-85
2022/11/09 02:23:30;;;;;;;0.50;0.50;;;13.40;99.90;;;;;;4961335;28;20048;-82
2022/11/09 02:26:07;;;;;;;0.50;0.50;;;13.40;99.90;;;;;;4964407;28;20469;-85
2022/11/09 02:28:36;;;;;;;0.50;0.50;;;13.40;99.90;;;;;;4967508;28;20482;-83
2022/11/09 02:31:03;;;;;;;0.50;0.50;;;13.40;99.90;;;;;;4970978;28;20571;-87
2022/11/09 02:33:38;;;;;;;0.50;0.50;;;13.30;99.90;;;;;;4947512;28;20908;-82
2022/11/09 02:36:04;;;;;;;0.50;0.50;;;13.30;99.90;;;;;;4977576;28;20071;-84
2022/11/09 02:38:30;;;;;;;0.50;0.50;;;13.30;99.90;;;;;;4966479;28;20044;-85
2022/11/09 02:40:56;;;;;;;0.50;0.50;;;13.30;99.90;;;;;;4956590;28;20048;-83
2022/11/09 02:43:22;;;;;;;0.50;0.50;;;13.20;99.90;;;;;;4960693;28;20044;-82
2022/11/09 02:45:47;;;;;;;0.50;0.50;;;13.30;99.90;;;;;;4944204;28;20064;-85
2022/11/09 02:48:13;;;;;;;0.50;0.50;;;13.20;99.90;;;;;;4961387;28;20105;-83
2022/11/09 02:50:39;;;;;;;0.50;0.50;;;13.20;99.90;;;;;;4960175;28;21030;-85
2022/11/09 02:53:05;;;;;;;0.50;0.50;;;13.20;99.90;;;;;;4962413;28;20052;-86
2022/11/09 02:55:31;;;;;;;0.50;0.50;;;13.20;99.90;;;;;;4964334;28;20067;-83
2022/11/09 02:57:56;;;;;;;0.50;0.50;;;13.20;99.90;;;;;;4986154;28;20044;-86
2022/11/09 03:00:22;;;;;;;0.50;0.50;;;13.20;99.90;;;;;;4932428;28;20048;-85
2022/11/09 03:02:48;;;;;;;0.50;0.50;;;13.20;99.90;;;;;;4969140;28;20075;-84
2022/11/09 03:05:14;;;;;;;0.50;0.50;;;13.10;99.90;;;;;;4961072;28;20177;-83
2022/11/09 03:07:39;;;;;;;0.50;0.50;;;13.10;99.90;;;;;;4944365;28;20769;-83
2022/11/09 03:10:05;;;;;;;0.50;0.50;;;13.20;99.90;;;;;;4963376;28;20411;-85
2022/11/09 03:12:31;;;;;;;0.50;0.50;;;13.20;99.90;;;;;;4954498;28;20677;-82
2022/11/09 03:14:58;;;;;;;0.50;0.50;;;13.20;99.90;;;;;;4965819;28;20105;-84
2022/11/09 03:17:25;;;;;;;0.50;0.50;;;13.20;99.90;;;;;;4984154;28;20044;-81
2022/11/09 03:19:51;;;;;;;0.50;0.50;;;13.20;99.90;;;;;;4987500;28;20640;-83
2022/11/09 03:22:17;;;;;;;0.50;0.50;;;13.20;99.90;;;;;;4964701;28;20688;-85
2022/11/09 03:24:42;;;;;;;0.50;0.50;;;13.10;99.90;;;;;;4946802;28;20063;-84
2022/11/09 03:27:09;;;;;;;0.50;0.50;;;13.10;99.90;;;;;;4957571;28;20051;-82
2022/11/09 03:29:35;;;;;;;0.50;0.50;;;13.10;99.90;;;;;;4966594;28;20252;-83
2022/11/09 03:32:01;;;;;;;0.50;0.50;;;13.10;99.90;;;;;;4947695;28;20044;-81
2022/11/09 03:34:26;;;;;;;0.50;0.50;;;13.00;99.90;;;;;;4960383;28;20410;-83
2022/11/09 03:36:52;;;;;;;0.50;0.50;;;13.00;99.90;;;;;;4962660;28;20067;-86
2022/11/09 03:39:18;;;;;;;0.50;0.50;;;13.10;99.90;;;;;;4954130;28;20079;-83
2022/11/09 03:41:44;;;;;;;0.50;0.50;;;13.00;99.90;;;;;;4946174;28;20448;-82
2022/11/09 03:44:10;;;;;;;0.50;0.50;;;13.10;99.90;;;;;;4951419;28;20306;-84
2022/11/09 03:46:35;;;;;;;0.50;0.50;;;13.10;99.90;;;;;;4928536;28;20650;-86
2022/11/09 03:49:01;;;;;;;0.50;0.50;;;13.00;99.90;;;;;;4960475;28;20296;-87
2022/11/09 03:51:27;;;;;;;0.50;0.50;;;13.10;99.90;;;;;;4964661;28;20479;-83
2022/11/09 03:53:53;;;;;;;0.50;0.50;;;12.90;99.90;;;;;;4965470;28;20786;-82
2022/11/09 03:56:18;;;;;;;0.50;0.50;;;13.00;99.90;;;;;;4959823;28;20045;-84
2022/11/09 03:58:44;;;;;;;0.50;0.50;;;12.90;99.90;;;;;;4967119;28;20801;-85
2022/11/09 04:01:10;;;;;;;0.50;0.50;;;12.80;99.90;;;;;;4974306;28;20325;-85
2022/11/09 04:03:36;;;;;;;0.50;0.50;;;12.90;99.90;;;;;;4955556;28;20044;-82
2022/11/09 04:06:03;;;;;;;0.50;0.50;;;12.90;99.90;;;;;;4963261;28;20051;-81
2022/11/09 04:08:29;;;;;;;0.50;0.50;;;12.90;99.90;;;;;;4967811;28;20416;-85
2022/11/09 04:10:55;;;;;;;0.50;0.50;;;13.00;99.90;;;;;;4967457;28;20905;-82
2022/11/09 04:13:21;;;;;;;0.50;0.50;;;13.00;99.90;;;;;;4967573;28;20056;-85
2022/11/09 04:15:47;;;;;;;0.50;0.50;;;13.10;99.90;;;;;;4974975;28;20052;-85
2022/11/09 04:18:14;;;;;;;0.50;0.50;;;13.00;99.90;;;;;;4970912;28;20056;-83
2022/11/09 04:20:40;;;;;;;0.50;0.50;;;13.10;99.90;;;;;;4951500;28;20071;-82
2022/11/09 04:23:09;;;;;;;0.50;0.50;;;13.20;99.90;;;;;;4966173;28;20048;-86
2022/11/09 04:25:37;;;;;;;0.50;0.50;;;13.20;99.90;;;;;;4950502;28;20780;-83
2022/11/09 04:28:04;;;;;;;0.60;0.60;;;13.20;99.90;;;;;;4963727;28;20048;-86
2022/11/09 04:30:32;;;;;;;0.50;0.50;;;13.20;99.90;;;;;;4947634;28;20835;-84
2022/11/09 04:32:59;;;;;;;0.50;0.50;;;13.20;99.90;;;;;;4962704;28;20048;-83
2022/11/09 04:35:25;;;;;;;0.50;0.50;;;13.10;99.90;;;;;;4958133;28;20077;-82
2022/11/09 04:37:56;;;;;;;0.50;0.50;;;13.10;99.90;;;;;;4974364;28;20064;-82
2022/11/09 04:40:24;;;;;;;0.50;0.50;;;13.10;99.90;;;;;;4945691;28;20507;-85
2022/11/09 04:42:50;;;;;;;0.50;0.50;;;13.00;99.90;;;;;;4983279;28;20078;-80
2022/11/09 04:45:16;;;;;;;0.50;0.50;;;13.10;99.90;;;;;;4949327;28;20058;-85
2022/11/09 04:47:42;;;;;;;0.50;0.50;;;13.10;99.90;;;;;;4946432;28;20953;-81
2022/11/09 04:50:09;;;;;;;0.50;0.50;;;13.10;99.90;;;;;;4965590;28;20060;-84
2022/11/09 04:52:34;;;;;;;0.50;0.50;;;13.10;99.90;;;;;;4968331;28;20526;-84
2022/11/09 04:55:00;;;;;;;0.50;0.50;;;13.00;99.90;;;;;;4960439;28;20049;-83
2022/11/09 04:57:26;;;;;;;0.50;0.50;;;13.00;99.90;;;;;;4965863;28;20048;-85
2022/11/09 04:59:52;;;;;;;0.50;0.50;;;12.90;99.90;;;;;;4949193;28;20131;-81
2022/11/09 05:02:18;;;;;;;0.50;0.50;;;12.90;99.90;;;;;;4947358;28;20048;-88
2022/11/09 05:04:44;;;;;;;0.50;0.50;;;12.90;99.90;;;;;;4971427;28;20097;-81
2022/11/09 05:07:10;;;;;;;0.50;0.50;;;12.80;99.90;;;;;;4979596;28;20044;-84
2022/11/09 05:09:36;;;;;;;0.50;0.50;;;12.80;99.90;;;;;;4961776;28;20056;-81
2022/11/09 05:12:02;;;;;;;0.50;0.50;;;12.80;99.90;;;;;;4956946;28;20040;-82
2022/11/09 05:14:28;;;;;;;0.50;0.50;;;12.80;99.90;;;;;;4942774;28;20463;-82
2022/11/09 05:16:53;;;;;;;0.60;0.60;;;12.80;99.90;;;;;;4921943;28;20056;-80
2022/11/09 05:19:19;;;;;;;0.50;0.50;;;12.70;99.90;;;;;;4959488;28;20163;-81
2022/11/09 05:21:45;;;;;;;0.50;0.50;;;12.70;99.90;;;;;;4977276;28;20067;-81
2022/11/09 05:24:10;;;;;;;0.50;0.50;;;12.70;99.90;;;;;;4941074;28;20041;-84
2022/11/09 05:26:38;;;;;;;0.50;0.50;;;12.80;99.90;;;;;;4976287;28;20102;-88
2022/11/09 05:29:07;;;;;;;0.50;0.50;;;12.70;99.90;;;;;;4962172;28;20540;-84
2022/11/09 05:31:32;;;;;;;0.50;0.50;;;12.70;99.90;;;;;;4956191;28;20552;-85
2022/11/09 05:33:59;;;;;;;0.50;0.50;;;12.70;99.90;;;;;;4961898;28;20079;-83
2022/11/09 05:36:26;;;;;;;0.50;0.50;;;12.60;99.90;;;;;;4960707;28;20056;-84
2022/11/09 05:38:53;;;;;;;0.50;0.50;;;12.60;99.90;;;;;;4963566;28;20051;-87
2022/11/09 05:41:19;;;;;;;0.50;0.50;;;12.60;99.90;;;;;;4951243;28;20355;-83
2022/11/09 05:43:45;;;;;;;0.50;0.50;;;12.50;99.90;;;;;;4962280;28;20493;-83
2022/11/09 05:46:13;;;;;;;0.50;0.50;;;12.50;99.90;;;;;;4966041;28;20044;-84
2022/11/09 05:48:39;;;;;;;0.50;0.50;;;12.50;99.90;;;;;;4966597;28;20497;-83
2022/11/09 05:51:07;;;;;;;0.50;0.50;;;12.50;99.90;;;;;;4984946;28;20482;-85
2022/11/09 05:53:33;;;;;;;0.50;0.50;;;12.50;99.90;;;;;;4966161;28;20474;-91
2022/11/09 05:56:13;;;;;;;0.50;0.50;;;12.50;99.90;;;;;;4951127;28;20083;-91
2022/11/09 05:58:40;;;;;;;0.50;0.50;;;12.50;99.90;;;;;;4949647;28;20912;-81
2022/11/09 06:01:08;;;;;;;0.50;0.50;;;12.40;99.90;;;;;;4965041;28;20893;-87
2022/11/09 06:03:34;;;;;;;0.50;0.50;;;12.40;99.90;;;;;;4944715;28;20504;-87
2022/11/09 06:06:05;;;;;;;0.50;0.50;;;12.30;99.90;;;;;;4934605;28;20044;-82
2022/11/09 06:08:31;;;;;;;0.50;0.50;;;12.40;99.90;;;;;;4949878;28;20041;-88
2022/11/09 06:11:09;;;;;;;0.50;0.50;;;12.40;99.90;;;;;;4933078;28;20237;-83
2022/11/09 06:13:35;;;;;;;0.55;0.55;;;12.20;99.90;;;;;;4964148;28;20045;-83
2022/11/09 06:16:02;;;;;;;0.50;0.50;;;12.20;99.90;;;;;;4960344;28;20059;-83
2022/11/09 06:18:30;;;;;;;0.50;0.50;;;12.20;99.90;;;;;;4962325;28;20048;-85
2022/11/09 06:20:59;;;;;;;0.50;0.50;;;12.20;99.90;;;;;;4963494;28;20826;-83
2022/11/09 06:23:26;;;;;;;0.50;0.50;;;12.10;99.90;;;;;;4962561;28;20076;-85
2022/11/09 06:26:00;;;;;;;0.50;0.50;;;12.10;99.90;;;;;;4965491;28;20488;-87
2022/11/09 06:28:26;;;;;;;0.50;0.50;;;12.20;99.90;;;;;;4982019;28;20041;-83
2022/11/09 06:30:56;;;;;;;0.50;0.50;;;12.20;99.90;;;;;;4966869;28;21175;-83
2022/11/09 06:33:22;;;;;;;0.50;0.50;;;12.30;99.90;;;;;;4970257;28;20527;-83
2022/11/09 06:35:48;;;;;;;0.50;0.50;;;12.20;99.90;;;;;;4987151;28;20052;-83
2022/11/09 06:38:13;;;;;;;0.50;0.50;;;12.20;99.90;;;;;;4965546;28;20056;-85
2022/11/09 06:40:39;;;;;;;0.50;0.50;;;12.20;99.90;;;;;;4973329;28;20159;-84
2022/11/09 06:43:05;;;;;;;0.55;0.55;;;12.20;99.90;;;;;;4969369;28;20058;-84
2022/11/09 06:45:32;;;;;;;0.50;0.50;;;12.10;99.90;;;;;;4964053;28;20541;-82
2022/11/09 06:47:59;;;;;;;0.50;0.50;;;12.10;99.90;;;;;;4954037;28;20493;-84
2022/11/09 06:50:27;;;;;;;0.60;0.60;;;12.10;99.90;;;;;;4980380;28;20083;-83
2022/11/09 06:53:04;;;;;;;0.50;0.50;;;12.10;99.90;;;;;;4969031;28;20385;-79
2022/11/09 06:55:32;;;;;;;0.50;0.50;;;12.10;99.90;;;;;;4960921;28;21132;-82
2022/11/09 06:57:58;;;;;;;0.50;0.50;;;12.10;99.90;;;;;;4962755;28;20040;-83
2022/11/09 07:00:26;;;;;;;0.60;0.60;;;12.10;99.90;;;;;;4963466;28;20040;-85
2022/11/09 07:02:52;;;;;;;0.60;0.60;;;12.10;99.90;;;;;;4961378;28;20290;-83
2022/11/09 07:05:19;;;;;;;0.55;0.55;;;12.10;99.90;;;;;;4968779;28;20182;-86
2022/11/09 07:07:45;;;;;;;0.50;0.50;;;12.10;99.90;;;;;;4963495;28;20417;-85
2022/11/09 07:10:11;;;;;;;0.50;0.50;;;12.00;99.90;;;;;;4987540;28;20428;-82
2022/11/09 07:12:36;;;;;;;0.50;0.50;;;12.10;99.90;;;;;;4967195;28;20053;-81
2022/11/09 07:15:03;;;;;;;0.50;0.50;;;12.10;99.90;;;;;;4968746;28;20438;-80
2022/11/09 07:17:37;;;;;;;0.50;0.50;;;12.10;99.90;;;;;;4962468;28;20961;-83
2022/11/09 07:20:04;;;;;;;0.50;0.50;;;12.10;99.90;;;;;;4950347;28;20644;-82
2022/11/09 07:22:29;;;;;;;0.50;0.50;;;12.10;99.90;;;;;;4979791;28;20082;-82
2022/11/09 07:24:55;;;;;;;0.50;0.50;;;12.20;99.90;;;;;;4963838;28;20051;-81
2022/11/09 07:27:22;;;;;;;0.50;0.50;;;12.30;99.90;;;;;;4962641;28;20495;-81
2022/11/09 07:29:47;;;;;;;0.50;0.50;;;12.30;99.90;;;;;;4962777;28;20045;-82
2022/11/09 07:32:13;;;;;;;0.50;0.50;;;12.30;99.90;;;;;;4964008;28;20072;-81
2022/11/09 07:34:39;;;;;;;0.50;0.50;;;12.50;99.90;;;;;;4944670;28;20494;-80
2022/11/09 07:37:05;;;;;;;0.50;0.50;;;12.50;99.90;;;;;;4960766;28;20449;-82
2022/11/09 07:39:30;;;;;;;0.50;0.50;;;12.50;99.90;;;;;;4957910;28;20726;-83
2022/11/09 07:41:56;;;;;;;0.50;0.50;;;12.70;99.90;;;;;;4965910;28;20091;-80
2022/11/09 07:44:40;;;;;;;0.50;0.50;;;12.70;99.90;;;;;;4950646;28;20056;-77
2022/11/09 07:47:06;;;;;;;;;;;12.80;99.90;;;;;;4968069;28;20277;-81
2022/11/09 07:49:32;;;;;;;0.60;0.60;;;12.90;99.90;;;;;;4961236;28;19967;-82
2022/11/09 07:51:58;;;;;;;0.50;0.50;;;12.90;99.90;;;;;;4961474;28;20040;-82
2022/11/09 07:54:24;;;;;;;0.50;0.50;;;12.90;99.90;;;;;;4959675;28;20048;-84
2022/11/09 07:56:50;;;;;;;0.50;0.50;;;13.00;99.90;;;;;;4981654;28;20056;-82
2022/11/09 07:59:16;;;;;;;0.50;0.50;;;13.00;99.90;;;;;;4959036;28;20456;-83
2022/11/09 08:01:41;;;;;;;0.50;0.50;;;13.00;99.90;;;;;;4958013;28;20056;-84
2022/11/09 08:04:07;;;;;;;0.50;0.50;;;13.10;99.90;;;;;;4959422;28;21019;-84
2022/11/09 08:06:33;;;;;;;0.50;0.50;;;13.20;99.90;;;;;;4966982;28;20048;-88
2022/11/09 08:08:59;;;;;;;0.50;0.50;;;13.20;99.90;;;;;;4965888;28;20051;-83
2022/11/09 08:11:26;;;;;;;0.50;0.50;;;13.30;99.90;;;;;;4960368;28;20437;-83
2022/11/09 08:13:51;;;;;;;0.50;0.50;;;13.30;99.90;;;;;;4962371;28;20060;-81
2022/11/09 08:16:17;;;;;;;0.50;0.50;;;13.40;99.90;;;;;;4945445;28;20499;-82
2022/11/09 08:18:43;;;;;;;0.50;0.50;;;13.50;99.90;;;;;;4952943;28;20052;-81
2022/11/09 08:21:09;;;;;;;0.50;0.50;;;13.40;99.90;;;;;;4964389;28;20653;-82
2022/11/09 08:23:35;;;;;;;0.50;0.50;;;13.40;99.90;;;;;;4953252;28;20591;-78
2022/11/09 08:26:03;;;;;;;0.50;0.50;;;13.40;99.90;;;;;;4965737;28;20052;-80
2022/11/09 08:28:28;;;;;;;0.50;0.50;;;13.50;99.90;;;;;;4965360;28;20392;-84
2022/11/09 08:30:57;;;;;;;0.50;0.50;;;13.60;99.90;;;;;;4970173;28;20485;-81
2022/11/09 08:33:24;;;;;;;0.50;0.50;;;13.70;99.90;;;;;;4943710;28;20957;-83
2022/11/09 08:35:50;;;;;;;0.60;0.60;;;13.80;99.90;;;;;;4968714;28;20041;-83
2022/11/09 08:38:16;;;;;;;0.50;0.50;;;13.90;99.90;;;;;;4961347;28;20479;-83
2022/11/09 08:40:42;;;;;;;0.50;0.50;;;13.90;99.90;;;;;;4964438;28;20781;-79
2022/11/09 08:43:09;;;;;;;0.50;0.50;;;13.90;99.90;;;;;;4961061;28;20052;-81
2022/11/09 08:45:37;;;;;;;0.50;0.50;;;14.00;99.90;;;;;;4934805;28;20457;-85
2022/11/09 08:48:03;;;;;;;0.50;0.50;;;14.10;99.90;;;;;;4966088;28;20044;-87
2022/11/09 08:50:31;;;;;;;0.50;0.50;;;14.10;99.90;;;;;;4982766;28;20409;-83
2022/11/09 08:52:57;;;;;;;0.50;0.50;;;14.20;99.90;;;;;;4961384;28;20048;-84
2022/11/09 08:55:23;;;;;;;0.50;0.50;;;14.30;99.90;;;;;;4941001;28;20466;-80
2022/11/09 08:57:52;;;;;;;0.50;0.50;;;14.30;99.90;;;;;;4981473;28;20067;-81
2022/11/09 09:00:17;;;;;;;0.50;0.50;;;14.30;99.90;;;;;;4984292;28;20048;-82
2022/11/09 09:02:43;;;;;;;0.50;0.50;;;14.40;99.90;;;;;;4965571;28;20055;-82
2022/11/09 09:05:09;;;;;;;0.50;0.50;;;14.30;99.90;;;;;;4957198;28;20776;-83
2022/11/09 09:07:35;;;;;;;0.50;0.50;;;14.40;99.90;;;;;;4965608;28;20045;-82
2022/11/09 09:10:00;;;;;;;0.50;0.50;;;14.40;99.90;;;;;;4959958;28;20682;-85
2022/11/09 09:12:26;;;;;;;0.50;0.50;;;14.40;99.90;;;;;;4936375;28;20413;-85
2022/11/09 09:14:52;;;;;;;0.50;0.50;;;14.40;99.90;;;;;;4913902;28;20071;-86
2022/11/09 09:17:17;;;;;;;0.50;0.50;;;14.30;99.90;;;;;;4955372;28;20044;-87
2022/11/09 09:19:43;;;;;;;0.50;0.50;;;14.30;99.90;;;;;;4970373;28;20669;-89
2022/11/09 09:22:12;;;;;;;0.50;0.50;;;14.30;99.90;;;;;;4954411;28;20052;-92
2022/11/09 09:24:40;;;;;;;0.50;0.50;;;14.40;99.90;;;;;;4947693;28;20044;-85
2022/11/09 09:27:05;;;;;;;0.50;0.50;;;14.40;99.90;;;;;;4954818;28;20048;-86
2022/11/09 09:29:31;;;;;;;0.50;0.50;;;14.40;99.90;;;;;;4953409;28;20542;-83
2022/11/09 09:31:57;;;;;;;0.50;0.50;;;14.50;99.90;;;;;;4968611;28;20083;-83
2022/11/09 09:34:22;;;;;;;0.47;0.47;;;14.40;99.90;;;;;;4944236;28;20929;-86
2022/11/09 09:36:52;;;;;;;0.50;0.50;;;14.40;99.90;;;;;;4969349;28;20448;-83
2022/11/09 09:39:18;;;;;;;0.50;0.50;;;14.60;99.90;;;;;;4959733;28;20045;-83
2022/11/09 09:41:46;;;;;;;0.50;0.50;;;14.40;99.90;;;;;;4981583;28;20389;-85
2022/11/09 09:44:27;;;;;;;0.50;0.50;;;14.30;99.90;;;;;;4965869;28;20048;-80
2022/11/09 09:47:08;;;;;;;0.50;0.50;;;14.40;99.90;;;;;;4961566;28;21015;-82
2022/11/09 09:49:38;;;;;;;0.50;0.50;;;14.50;99.90;;;;;;4963900;28;20562;-85
2022/11/09 09:52:23;;;;;;;0.50;0.50;;;14.60;99.90;;;;;;4971004;28;20412;-84
2022/11/09 09:55:08;;;;;;;;;;;14.80;99.90;;;;;;4957373;28;20049;-84
2022/11/09 09:57:36;;;;;;;0.50;0.50;;;14.60;99.90;;;;;;4966080;28;20477;-86
2022/11/09 10:00:06;;;;;;;0.50;0.50;;;14.50;99.90;;;;;;4956577;28;20058;-86
2022/11/09 10:02:36;;;;;;;0.50;0.50;;;14.60;99.90;;;;;;4966548;28;20568;-85
2022/11/09 10:05:13;;;;;;;0.52;0.52;;;14.60;99.90;;;;;;4962267;28;20428;-85
2022/11/09 10:08:04;;;;;;;0.50;0.50;;;14.80;99.90;;;;;;4964599;28;20470;-86
2022/11/09 10:10:52;;;;;;;0.50;0.50;;;14.80;99.90;;;;;;4956935;28;20135;-84
2022/11/09 10:13:26;;;;;;;0.50;0.50;;;14.90;99.90;;;;;;4964348;28;21151;-82
2022/11/09 10:16:24;;;;;;;0.50;0.50;;;14.90;99.90;;;;;;4963045;28;20226;-89
2022/11/09 10:19:10;;;;;;;0.60;0.60;;;14.80;99.90;;;;;;4987923;28;20075;-85
2022/11/09 10:21:55;;;;;;;0.50;0.50;;;14.70;99.90;;;;;;4937018;28;20697;-83
2022/11/09 10:24:29;;;;;;;0.50;0.50;;;14.70;99.90;;;;;;4949192;28;20052;-85
2022/11/09 10:26:58;;;;;;;;;;;14.60;99.90;;;;;;4960178;28;20044;-88
2022/11/09 10:29:30;;;;;;;0.50;0.50;;;14.70;99.90;;;;;;4927228;28;19924;-84
2022/11/09 10:32:13;;;;;;;0.50;0.50;;;14.80;99.90;;;;;;4980701;28;20823;-84
2022/11/09 10:34:51;;;;;;;0.50;0.50;;;14.80;99.90;;;;;;4946906;28;20553;-86
2022/11/09 10:37:47;;;;;;;0.50;0.50;;;14.80;99.90;;;;;;4960843;28;20056;-83
2022/11/09 10:40:18;;;;;;;0.50;0.50;;;14.90;99.90;;;;;;4946352;28;20127;-83
2022/11/09 10:42:49;;;;;;;0.50;0.50;;;15.20;99.90;;;;;;4964741;28;20557;-83
2022/11/09 10:45:55;;;;;;;0.50;0.50;;;15.10;99.90;;;;;;4964223;28;20375;-84
2022/11/09 10:48:33;;;;;;;0.50;0.50;;;15.20;99.90;;;;;;4963295;28;20722;-80
2022/11/09 10:50:59;;;;;;;0.50;0.50;;;15.30;99.90;;;;;;4981053;28;20041;-88
2022/11/09 10:53:29;;;;;;;0.50;0.50;;;15.50;99.90;;;;;;4953060;28;20049;-87
2022/11/09 10:56:00;;;;;;;0.50;0.50;;;15.50;99.90;;;;;;4959482;28;20128;-81
2022/11/09 10:58:34;;;;;;;0.50;0.50;;;15.50;99.90;;;;;;4984788;28;20131;-77
2022/11/09 11:01:00;;;;;;;;;;;15.50;99.90;;;;;;4962707;28;20934;-82
2022/11/09 11:03:26;;;;;;;0.50;0.50;;;15.40;99.90;;;;;;4962111;28;20896;-85
2022/11/09 11:06:19;;;;;;;0.50;0.50;;;15.30;99.90;;;;;;4962066;28;20495;-81
2022/11/09 11:08:46;;;;;;;0.50;0.50;;;15.40;99.90;;;;;;4963792;28;20573;-87
2022/11/09 11:11:22;;;;;;;0.50;0.50;;;15.50;99.90;;;;;;4962223;28;20052;-82
2022/11/09 11:13:50;;;;;;;0.50;0.50;;;15.30;99.90;;;;;;4982191;28;20447;-88
2022/11/09 11:16:32;;;;;;;0.50;0.50;;;15.00;99.90;;;;;;4962183;28;20423;-82
2022/11/09 11:18:58;;;;;;;0.57;0.57;;;15.50;99.90;;;;;;4981638;28;20429;-79
2022/11/09 11:21:25;;;;;;;0.50;0.50;;;15.70;99.90;;;;;;4959898;28;20755;-84
2022/11/09 11:24:17;;;;;;;0.50;0.50;;;15.70;99.90;;;;;;4964998;28;20056;-83
2022/11/09 11:26:52;;;;;;;0.50;0.50;;;15.30;99.90;;;;;;4964352;28;20052;-83
2022/11/09 11:29:18;;;;;;;0.50;0.50;;;15.40;99.90;;;;;;4946853;28;20490;-86
2022/11/09 11:31:44;;;;;;;0.50;0.50;;;15.60;99.90;;;;;;4971183;28;20055;-79
2022/11/09 11:34:13;;;;;;;0.50;0.50;;;15.60;99.90;;;;;;4969099;28;20575;-85
2022/11/09 11:36:58;;;;;;;0.50;0.50;;;16.00;99.90;;;;;;4963853;28;20258;-89
2022/11/09 11:39:43;;;;;;;0.50;0.50;;;16.20;99.90;;;;;;4961515;28;20067;-84
2022/11/09 11:42:34;;;;;;;0.50;0.50;;;16.10;99.90;;;;;;4962188;28;20845;-90
2022/11/09 11:45:09;;;;;;;0.50;0.50;;;15.90;99.90;;;;;;4959783;28;20445;-88
2022/11/09 11:47:46;;;;;;;0.50;0.50;;;15.70;99.90;;;;;;4961894;28;20045;-81
2022/11/09 11:50:27;;;;;;;0.50;0.50;;;15.60;99.90;;;;;;4976856;28;20485;-87
2022/11/09 11:52:56;;;;;;;0.50;0.50;;;15.40;99.90;;;;;;4963384;28;20440;-86
2022/11/09 11:55:58;;;;;;;0.50;0.50;;;15.20;99.90;;;;;;4979315;28;20972;-82
2022/11/09 11:58:43;;;;;;;0.50;0.50;;;15.10;99.90;;;;;;4970407;28;20490;-83
2022/11/09 12:01:27;;;;;;;0.50;0.50;;;15.00;99.90;;;;;;4981381;28;20052;-81
2022/11/09 12:04:03;;;;;;;0.50;0.50;;;14.80;99.90;;;;;;4951150;28;20249;-86
2022/11/09 12:06:37;;;;;;;0.50;0.50;;;14.70;99.90;;;;;;4943693;28;21044;-84
2022/11/09 12:09:11;;;;;;;0.50;0.50;;;14.80;99.90;;;;;;4963588;28;20059;-81
2022/11/09 12:11:59;;;;;;;0.50;0.50;;;15.20;99.90;;;;;;4961120;28;20625;-88
2022/11/09 12:14:54;;;;;;;0.60;0.60;;;14.90;99.90;;;;;;4964953;28;20216;-86
2022/11/09 12:17:29;;;;;;;0.50;0.50;;;15.30;99.90;;;;;;4948527;28;20123;-88
2022/11/09 12:20:06;;;;;;;0.50;0.50;;;15.80;99.90;;;;;;4946328;28;20147;-83
2022/11/09 12:22:40;;;;;;;0.50;0.50;;;15.50;99.90;;;;;;4963637;28;20036;-86
2022/11/09 12:25:18;;;;;;;0.60;0.60;;;15.50;99.90;;;;;;4949503;28;20068;-85
2022/11/09 12:28:19;;;;;;;0.50;0.50;;;15.30;99.90;;;;;;4964507;28;20533;-84
2022/11/09 12:31:15;;;;;;;0.50;0.50;;;15.00;99.90;;;;;;4866870;28;20203;-85
2022/11/09 12:34:00;;;;;;;0.50;0.50;;;15.00;99.90;;;;;;4950422;28;20050;-84
2022/11/09 12:36:43;;;;;;;0.50;0.50;;;14.90;99.90;;;;;;4965207;28;20056;-83
2022/11/09 12:39:39;;;;;;;0.50;0.50;;;15.00;99.90;;;;;;4965008;28;20048;-83
2022/11/09 12:42:13;;;;;;;0.50;0.50;;;15.00;99.90;;;;;;4962174;28;20498;-84
2022/11/09 12:44:47;;;;;;;0.50;0.50;;;14.90;99.90;;;;;;4974370;28;20379;-81
2022/11/09 12:47:18;;;;;;;0.50;0.50;;;14.90;99.90;;;;;;4977549;28;20058;-81
2022/11/09 12:49:45;;;;;;;0.50;0.50;;;15.00;99.90;;;;;;4953033;28;20048;-79
2022/11/09 12:52:15;;;;;;;0.50;0.50;;;15.00;99.90;;;;;;4964499;28;20603;-81
2022/11/09 12:54:45;;;;;;;0.50;0.50;;;14.80;99.90;;;;;;4962844;28;20048;-86
2022/11/09 12:57:20;;;;;;;0.50;0.50;;;14.60;99.90;;;;;;4983380;28;20509;-85
2022/11/09 12:59:52;;;;;;;0.50;0.50;;;14.50;99.90;;;;;;4964864;28;20076;-84
2022/11/09 13:02:32;;;;;;;0.50;0.50;;;14.80;99.90;;;;;;4964069;28;20044;-85